createdAt,value
2022-12-03T00:00:32.540Z,21.23
2022-12-03T00:02:59.085Z,20.23
2022-12-03T00:05:25.683Z,18.98
2022-12-03T00:07:52.225Z,20.35
2022-12-03T00:10:18.765Z,20.90
2022-12-03T00:12:45.239Z,21.88
2022-12-03T00:15:12.378Z,20.30
2022-12-03T00:17:38.913Z,22.27
2022-12-03T00:20:07.620Z,23.42
2022-12-03T00:22:34.301Z,19.70
2022-12-03T00:25:00.797Z,21.67
2022-12-03T00:27:27.354Z,22.25
2022-12-03T00:29:53.847Z,22.10
2022-12-03T00:32:20.303Z,17.55
2022-12-03T00:34:46.827Z,18.10
2022-12-03T00:37:13.345Z,24.05
2022-12-03T00:39:39.839Z,19.98
2022-12-03T00:42:06.335Z,13.32
2022-12-03T00:44:32.834Z,17.27
2022-12-03T00:46:59.324Z,19.20
2022-12-03T00:49:25.839Z,24.67
2022-12-03T00:51:52.496Z,30.02
2022-12-03T00:54:18.962Z,26.73
2022-12-03T00:56:45.475Z,23.50
2022-12-03T00:59:11.998Z,16.92
2022-12-03T01:01:38.537Z,22.13
2022-12-03T01:04:05.231Z,20.38
2022-12-03T01:06:31.763Z,20.60
2022-12-03T01:08:58.302Z,24.48
2022-12-03T01:11:41.144Z,18.58
2022-12-03T01:14:16.718Z,20.73
2022-12-03T01:16:43.537Z,20.10
2022-12-03T01:19:15.767Z,23.30
2022-12-03T01:21:44.617Z,22.80
2022-12-03T01:24:11.598Z,17.95
2022-12-03T01:26:38.446Z,19.58
2022-12-03T01:29:05.274Z,21.42
2022-12-03T01:31:50.484Z,20.70
2022-12-03T01:34:17.236Z,18.25
2022-12-03T01:36:43.818Z,22.52
2022-12-03T01:39:10.615Z,22.70
2022-12-03T01:41:38.126Z,18.83
2022-12-03T01:44:23.256Z,19.65
2022-12-03T01:46:52.014Z,18.50
2022-12-03T01:49:22.251Z,18.38
2022-12-03T01:51:50.081Z,12.43
2022-12-03T01:54:25.133Z,17.95
2022-12-03T01:56:51.953Z,17.92
2022-12-03T01:59:20.642Z,15.73
2022-12-03T02:01:47.292Z,18.27
2022-12-03T02:04:16.371Z,24.92
2022-12-03T02:06:44.466Z,17.00
2022-12-03T02:09:12.127Z,21.20
2022-12-03T02:11:48.953Z,16.50
2022-12-03T02:14:21.722Z,15.75
2022-12-03T02:16:48.509Z,19.38
2022-12-03T02:19:29.759Z,21.08
2022-12-03T02:22:08.192Z,19.80
2022-12-03T02:24:55.666Z,20.20
2022-12-03T02:27:22.941Z,20.42
2022-12-03T02:29:49.408Z,22.42
2022-12-03T02:32:15.905Z,23.10
2022-12-03T02:34:44.650Z,20.45
2022-12-03T02:37:19.857Z,24.75
2022-12-03T02:39:51.647Z,19.75
2022-12-03T02:42:35.022Z,20.85
2022-12-03T02:45:22.317Z,19.92
2022-12-03T02:48:00.895Z,23.67
2022-12-03T02:50:31.995Z,23.20
2022-12-03T02:55:30.637Z,20.75
2022-12-03T02:58:01.169Z,22.98
2022-12-03T03:00:27.909Z,23.77
2022-12-03T03:02:54.507Z,25.02
2022-12-03T03:05:23.674Z,24.08
2022-12-03T03:07:53.561Z,21.98
2022-12-03T03:10:23.443Z,23.70
2022-12-03T03:12:51.739Z,25.90
2022-12-03T03:15:18.368Z,21.25
2022-12-03T03:17:44.905Z,23.05
2022-12-03T03:20:12.344Z,21.05
2022-12-03T03:22:41.159Z,21.17
2022-12-03T03:25:10.913Z,18.42
2022-12-03T03:27:38.839Z,23.35
2022-12-03T03:30:06.531Z,20.88
2022-12-03T03:32:34.001Z,24.70
2022-12-03T03:35:00.832Z,21.45
2022-12-03T03:37:28.449Z,25.08
2022-12-03T03:39:55.531Z,17.48
2022-12-03T03:42:22.749Z,22.02
2022-12-03T03:44:49.719Z,25.48
2022-12-03T03:47:17.324Z,22.08
2022-12-03T03:49:44.218Z,22.92
2022-12-03T03:52:11.716Z,25.48
2022-12-03T03:54:39.281Z,13.98
2022-12-03T03:57:05.999Z,25.60
2022-12-03T03:59:32.555Z,20.67
2022-12-03T04:01:59.031Z,25.85
2022-12-03T04:04:35.211Z,24.65
2022-12-03T04:07:01.813Z,20.05
2022-12-03T04:09:28.257Z,22.05
2022-12-03T04:12:13.260Z,21.83
2022-12-03T04:14:39.669Z,23.10
2022-12-03T04:17:06.122Z,23.30
2022-12-03T04:19:32.557Z,23.63
2022-12-03T04:22:17.361Z,21.05
2022-12-03T04:24:43.940Z,21.30
2022-12-03T04:27:28.943Z,21.63
2022-12-03T04:29:55.355Z,21.65
2022-12-03T04:32:40.372Z,25.92
2022-12-03T04:35:25.892Z,23.00
2022-12-03T04:37:52.386Z,24.33
2022-12-03T04:40:37.392Z,22.27
2022-12-03T04:43:03.894Z,22.40
2022-12-03T04:45:30.420Z,19.45
2022-12-03T04:47:56.894Z,23.55
2022-12-03T04:50:23.342Z,21.60
2022-12-03T04:52:49.820Z,23.60
2022-12-03T04:55:16.387Z,25.80
2022-12-03T04:57:42.840Z,25.20
2022-12-03T05:00:09.947Z,29.60
2022-12-03T05:02:36.460Z,27.48
2022-12-03T05:05:02.971Z,26.58
2022-12-03T05:07:29.469Z,29.00
2022-12-03T05:09:55.921Z,20.35
2022-12-03T05:12:22.398Z,25.15
2022-12-03T05:14:48.864Z,27.10
2022-12-03T05:17:15.285Z,26.52
2022-12-03T05:20:00.134Z,24.55
2022-12-03T05:22:26.607Z,25.77
2022-12-03T05:24:53.454Z,23.70
2022-12-03T05:27:23.854Z,21.88
2022-12-03T05:29:50.947Z,25.17
2022-12-03T05:32:17.401Z,26.00
2022-12-03T05:34:43.957Z,26.52
2022-12-03T05:37:10.441Z,26.98
2022-12-03T05:39:37.284Z,27.52
2022-12-03T05:42:27.214Z,19.42
2022-12-03T05:44:53.807Z,26.25
2022-12-03T05:47:20.408Z,23.58
2022-12-03T05:49:46.915Z,22.92
2022-12-03T05:52:13.351Z,28.67
2022-12-03T05:54:39.804Z,25.55
2022-12-03T05:57:06.271Z,23.70
2022-12-03T05:59:32.785Z,23.58
2022-12-03T06:01:59.241Z,31.33
2022-12-03T06:04:25.717Z,27.45
2022-12-03T06:06:52.173Z,22.13
2022-12-03T06:09:18.629Z,26.88
2022-12-03T06:11:45.118Z,21.90
2022-12-03T06:14:11.555Z,26.48
2022-12-03T06:16:38.108Z,26.30
2022-12-03T06:19:04.686Z,28.80
2022-12-03T06:21:31.194Z,29.65
2022-12-03T06:23:57.742Z,29.63
2022-12-03T06:26:24.160Z,28.52
2022-12-03T06:28:50.658Z,26.88
2022-12-03T06:31:17.151Z,24.83
2022-12-03T06:33:43.690Z,26.75
2022-12-03T06:36:10.183Z,28.48
2022-12-03T06:38:36.671Z,29.90
2022-12-03T06:41:03.127Z,24.02
2022-12-03T06:43:30.968Z,25.60
2022-12-03T06:45:57.444Z,25.92
2022-12-03T06:48:23.918Z,29.38
2022-12-03T06:50:50.399Z,27.95
2022-12-03T06:53:16.905Z,24.42
2022-12-03T06:55:43.448Z,26.33
2022-12-03T06:58:09.895Z,26.58
2022-12-03T07:00:51.465Z,26.60
2022-12-03T07:03:17.937Z,30.48
2022-12-03T07:05:44.468Z,18.45
2022-12-03T07:08:10.994Z,29.00
2022-12-03T07:10:37.459Z,28.83
2022-12-03T07:13:04.028Z,26.02
2022-12-03T07:15:30.523Z,26.58
2022-12-03T07:17:57.099Z,26.75
2022-12-03T07:20:23.551Z,28.95
2022-12-03T07:22:49.997Z,32.17
2022-12-03T07:25:21.396Z,25.33
2022-12-03T07:27:49.729Z,31.25
2022-12-03T07:30:17.650Z,29.33
2022-12-03T07:32:44.203Z,22.00
2022-12-03T07:35:10.682Z,28.52
2022-12-03T07:37:37.440Z,29.95
2022-12-03T07:40:04.982Z,27.90
2022-12-03T07:42:31.556Z,27.13
2022-12-03T07:44:58.018Z,27.38
2022-12-03T07:47:24.507Z,31.30
2022-12-03T07:49:51.004Z,27.50
2022-12-03T07:52:17.476Z,23.92
2022-12-03T07:54:44.211Z,29.52
2022-12-03T07:57:10.676Z,37.03
2022-12-03T07:59:37.228Z,25.60
2022-12-03T08:02:04.023Z,31.98
2022-12-03T08:04:30.574Z,28.95
2022-12-03T08:06:57.016Z,28.60
2022-12-03T08:09:23.543Z,29.73
2022-12-03T08:11:50.144Z,28.65
2022-12-03T08:14:18.668Z,27.92
2022-12-03T08:16:46.717Z,31.67
2022-12-03T08:19:15.396Z,24.63
2022-12-03T08:21:42.596Z,32.42
2022-12-03T08:24:14.345Z,26.95
2022-12-03T08:26:42.004Z,19.80
2022-12-03T08:29:10.224Z,29.83
2022-12-03T08:31:36.915Z,29.98
2022-12-03T08:34:23.269Z,26.77
2022-12-03T08:36:52.399Z,41.92
2022-12-03T08:39:44.488Z,29.20
2022-12-03T08:42:35.490Z,29.85
2022-12-03T08:45:30.331Z,37.90
2022-12-03T08:48:03.109Z,33.75
2022-12-03T08:50:32.332Z,26.60
2022-12-03T08:53:20.613Z,45.35
2022-12-03T08:55:51.631Z,30.75
2022-12-03T09:00:47.372Z,29.85
2022-12-03T09:03:19.251Z,34.78
2022-12-03T09:05:45.742Z,28.52
2022-12-03T09:08:12.259Z,29.00
2022-12-03T09:10:38.768Z,28.83
2022-12-03T09:13:05.204Z,32.70
2022-12-03T09:15:31.711Z,34.17
2022-12-03T09:17:58.188Z,33.05
2022-12-03T09:20:24.651Z,22.40
2022-12-03T09:22:51.146Z,26.80
2022-12-03T09:25:17.688Z,34.15
2022-12-03T09:27:44.159Z,31.00
2022-12-03T09:30:10.970Z,31.73
2022-12-03T09:32:37.467Z,27.38
2022-12-03T09:35:04.917Z,29.17
2022-12-03T09:37:31.472Z,28.75
2022-12-03T09:39:57.909Z,29.17
2022-12-03T09:42:25.436Z,26.67
2022-12-03T09:44:52.780Z,24.42
2022-12-03T09:47:20.633Z,24.92
2022-12-03T09:49:47.114Z,25.42
2022-12-03T09:52:26.256Z,32.28
2022-12-03T09:54:54.346Z,23.50
2022-12-03T09:57:21.092Z,38.38
2022-12-03T09:59:47.613Z,42.47
2022-12-03T10:02:24.919Z,35.95
2022-12-03T10:07:20.595Z,27.88
2022-12-03T10:09:47.130Z,29.85
2022-12-03T10:12:15.053Z,26.73
2022-12-03T10:14:42.964Z,22.83
2022-12-03T10:17:11.474Z,26.65
2022-12-03T10:19:39.531Z,25.98
2022-12-03T10:22:06.030Z,25.33
2022-12-03T10:24:34.378Z,27.80
2022-12-03T10:27:04.278Z,25.52
2022-12-03T10:29:35.763Z,27.17
2022-12-03T10:32:06.403Z,29.20
2022-12-03T10:34:40.780Z,28.95
2022-12-03T10:37:09.365Z,27.90
2022-12-03T10:39:58.552Z,29.13
2022-12-03T10:42:30.405Z,25.38
2022-12-03T10:45:22.805Z,23.98
2022-12-03T10:48:26.257Z,24.90
2022-12-03T10:51:03.272Z,25.73
2022-12-03T10:53:32.525Z,27.25
2022-12-03T10:56:01.906Z,24.42
2022-12-03T10:58:31.571Z,23.00
2022-12-03T11:00:59.267Z,31.33
2022-12-03T11:03:29.416Z,27.00
2022-12-03T11:05:57.289Z,25.40
2022-12-03T11:08:26.833Z,24.33
2022-12-03T11:10:59.263Z,26.33
2022-12-03T11:13:34.906Z,28.75
2022-12-03T11:16:03.081Z,41.13
2022-12-03T11:18:38.771Z,44.50
2022-12-03T11:21:13.914Z,40.45
2022-12-03T11:23:46.555Z,30.33
2022-12-03T11:26:39.036Z,29.05
2022-12-03T11:29:14.006Z,33.72
2022-12-03T11:31:45.649Z,27.40
2022-12-03T11:34:18.290Z,27.80
2022-12-03T11:37:09.492Z,23.23
2022-12-03T11:40:03.593Z,24.63
2022-12-03T11:42:39.108Z,23.73
2022-12-03T11:45:05.530Z,27.60
2022-12-03T11:47:36.922Z,27.23
2022-12-03T11:50:23.901Z,22.65
2022-12-03T11:53:01.078Z,23.85
2022-12-03T11:58:14.607Z,26.05
2022-12-03T12:00:51.172Z,28.90
2022-12-03T12:03:32.868Z,27.08
2022-12-03T12:06:21.116Z,33.45
2022-12-03T12:08:50.586Z,29.50
2022-12-03T12:11:19.410Z,22.45
2022-12-03T12:13:58.204Z,23.77
2022-12-03T12:16:47.602Z,29.45
2022-12-03T12:19:29.505Z,27.23
2022-12-03T12:22:12.110Z,23.63
2022-12-03T12:24:40.562Z,25.13
2022-12-03T12:27:08.657Z,20.83
2022-12-03T12:29:36.501Z,22.90
2022-12-03T12:32:05.737Z,23.98
2022-12-03T12:34:32.307Z,28.95
2022-12-03T12:37:00.898Z,27.40
2022-12-03T12:39:29.894Z,26.13
2022-12-03T12:41:57.622Z,23.13
2022-12-03T12:44:26.200Z,18.92
2022-12-03T12:46:54.767Z,23.17
2022-12-03T12:49:26.692Z,26.10
2022-12-03T12:51:53.677Z,26.40
2022-12-03T12:54:20.196Z,26.00
2022-12-03T12:56:49.970Z,23.92
2022-12-03T12:59:19.864Z,23.35
2022-12-03T13:01:48.462Z,22.20
2022-12-03T13:04:17.592Z,20.60
2022-12-03T13:06:45.098Z,26.95
2022-12-03T13:09:17.914Z,26.67
2022-12-03T13:11:46.812Z,26.83
2022-12-03T13:14:20.206Z,26.67
2022-12-03T13:16:48.671Z,26.83
2022-12-03T13:19:24.154Z,28.13
2022-12-03T13:21:53.541Z,24.52
2022-12-03T13:24:34.814Z,19.88
2022-12-03T13:27:13.548Z,19.73
2022-12-03T13:29:40.246Z,22.50
2022-12-03T13:32:32.393Z,26.05
2022-12-03T13:35:31.552Z,23.98
2022-12-03T13:37:59.196Z,22.15
2022-12-03T13:40:35.581Z,27.20
2022-12-03T13:43:14.419Z,30.45
2022-12-03T13:45:45.033Z,26.30
2022-12-03T13:48:17.858Z,24.80
2022-12-03T13:50:46.034Z,30.50
2022-12-03T13:53:29.337Z,29.90
2022-12-03T13:56:03.420Z,25.00
2022-12-03T13:58:29.966Z,27.92
2022-12-03T14:00:56.435Z,27.60
2022-12-03T14:03:23.397Z,25.20
2022-12-03T14:05:49.932Z,24.45
2022-12-03T14:08:16.580Z,24.70
2022-12-03T14:10:43.166Z,26.65
2022-12-03T14:13:09.659Z,30.13
2022-12-03T14:15:36.145Z,25.80
2022-12-03T14:18:02.661Z,29.77
2022-12-03T14:20:29.176Z,26.20
2022-12-03T14:22:59.203Z,24.05
2022-12-03T14:25:26.231Z,28.27
2022-12-03T14:27:52.731Z,24.20
2022-12-03T14:30:19.206Z,28.02
2022-12-03T14:32:45.756Z,26.65
2022-12-03T14:35:12.245Z,24.20
2022-12-03T14:37:38.763Z,27.55
2022-12-03T14:40:08.833Z,22.90
2022-12-03T14:42:36.656Z,24.98
2022-12-03T14:45:03.550Z,27.83
2022-12-03T14:47:30.088Z,28.50
2022-12-03T14:49:57.114Z,27.02
2022-12-03T14:52:23.758Z,24.75
2022-12-03T14:54:50.200Z,23.48
2022-12-03T14:57:17.266Z,25.85
2022-12-03T14:59:44.812Z,28.00
2022-12-03T15:02:12.483Z,26.30
2022-12-03T15:04:40.588Z,24.30
2022-12-03T15:07:07.836Z,23.45
2022-12-03T15:09:34.356Z,30.35
2022-12-03T15:12:00.980Z,31.63
2022-12-03T15:14:27.980Z,31.55
2022-12-03T15:16:54.629Z,24.90
2022-12-03T15:19:21.242Z,30.63
2022-12-03T15:21:47.805Z,27.80
2022-12-03T15:24:14.347Z,34.75
2022-12-03T15:26:40.869Z,25.70
2022-12-03T15:29:07.426Z,26.73
2022-12-03T15:31:33.980Z,32.08
2022-12-03T15:34:00.703Z,28.10
2022-12-03T15:36:27.183Z,33.95
2022-12-03T15:38:53.717Z,30.60
2022-12-03T15:41:29.404Z,31.70
2022-12-03T15:43:58.333Z,25.15
2022-12-03T15:46:27.638Z,57.50
2022-12-03T15:48:55.623Z,34.72
2022-12-03T15:51:22.219Z,30.50
2022-12-03T15:53:50.235Z,34.25
2022-12-03T15:56:16.749Z,31.88
2022-12-03T15:58:43.423Z,23.23
2022-12-03T16:01:10.413Z,30.33
2022-12-03T16:03:37.137Z,34.97
2022-12-03T16:06:03.774Z,33.78
2022-12-03T16:08:30.326Z,27.15
2022-12-03T16:10:56.877Z,31.40
2022-12-03T16:13:23.555Z,33.30
2022-12-03T16:15:50.019Z,31.55
2022-12-03T16:18:16.605Z,34.22
2022-12-03T16:20:43.224Z,31.23
2022-12-03T16:23:09.753Z,31.67
2022-12-03T16:25:36.365Z,27.02
2022-12-03T16:28:03.209Z,30.85
2022-12-03T16:30:29.717Z,32.83
2022-12-03T16:32:56.223Z,40.95
2022-12-03T16:35:22.719Z,35.35
2022-12-03T16:37:49.289Z,32.28
2022-12-03T16:40:15.823Z,31.50
2022-12-03T16:42:42.360Z,26.10
2022-12-03T16:45:09.355Z,33.05
2022-12-03T16:47:35.904Z,34.40
2022-12-03T16:50:04.566Z,31.45
2022-12-03T16:52:31.118Z,33.00
2022-12-03T16:54:57.574Z,30.63
2022-12-03T16:57:26.574Z,27.15
2022-12-03T16:59:56.931Z,32.58
2022-12-03T17:02:23.624Z,35.40
2022-12-03T17:04:50.164Z,33.85
2022-12-03T17:07:16.678Z,39.17
2022-12-03T17:09:43.290Z,30.98
2022-12-03T17:12:09.855Z,37.72
2022-12-03T17:14:36.391Z,36.75
2022-12-03T17:17:03.735Z,31.73
2022-12-03T17:19:30.273Z,42.15
2022-12-03T17:21:57.261Z,37.17
2022-12-03T17:24:23.737Z,33.85
2022-12-03T17:26:50.215Z,35.00
2022-12-03T17:29:16.780Z,39.22
2022-12-03T17:31:43.412Z,39.60
2022-12-03T17:34:10.027Z,37.58
2022-12-03T17:36:36.670Z,38.85
2022-12-03T17:39:03.575Z,35.55
2022-12-03T17:41:30.115Z,34.90
2022-12-03T17:43:56.616Z,38.85
2022-12-03T17:46:23.178Z,37.40
2022-12-03T17:48:49.716Z,36.30
2022-12-03T17:51:16.373Z,37.58
2022-12-03T17:53:42.944Z,30.55
2022-12-03T17:56:09.647Z,37.38
2022-12-03T17:58:36.138Z,37.25
2022-12-03T18:01:03.446Z,34.08
2022-12-03T18:03:30.395Z,33.13
2022-12-03T18:05:56.943Z,34.20
2022-12-03T18:08:23.508Z,34.63
2022-12-03T18:10:50.243Z,34.83
2022-12-03T18:13:16.797Z,36.80
2022-12-03T18:15:43.432Z,38.17
2022-12-03T18:18:10.377Z,37.10
2022-12-03T18:20:37.349Z,33.90
2022-12-03T18:23:04.737Z,36.70
2022-12-03T18:25:31.457Z,37.53
2022-12-03T18:27:58.096Z,36.55
2022-12-03T18:30:24.701Z,37.03
2022-12-03T18:32:51.258Z,33.38
2022-12-03T18:35:18.100Z,37.67
2022-12-03T18:37:44.934Z,35.85
2022-12-03T18:40:24.579Z,36.22
2022-12-03T18:42:52.883Z,30.98
2022-12-03T18:45:19.443Z,36.00
2022-12-03T18:47:46.092Z,40.97
2022-12-03T18:50:13.442Z,39.00
2022-12-03T18:52:40.341Z,45.15
2022-12-03T18:55:07.797Z,38.60
2022-12-03T18:57:34.377Z,33.53
2022-12-03T19:00:00.945Z,31.98
2022-12-03T19:05:13.906Z,38.75
2022-12-03T19:07:41.185Z,31.52
2022-12-03T19:10:08.732Z,34.22
2022-12-03T19:12:36.272Z,34.17
2022-12-03T19:15:03.926Z,36.20
2022-12-03T19:17:30.912Z,32.60
2022-12-03T19:19:57.743Z,35.30
2022-12-03T19:22:24.554Z,34.45
2022-12-03T19:24:51.140Z,35.15
2022-12-03T19:27:17.955Z,34.13
2022-12-03T19:29:47.433Z,34.75
2022-12-03T19:32:13.991Z,33.28
2022-12-03T19:34:40.689Z,40.50
2022-12-03T19:37:07.162Z,35.15
2022-12-03T19:39:33.993Z,39.97
2022-12-03T19:42:00.449Z,34.47
2022-12-03T19:44:26.909Z,39.08
2022-12-03T19:46:55.036Z,34.72
2022-12-03T19:49:21.561Z,42.28
2022-12-03T19:51:48.355Z,37.15
2022-12-03T19:54:15.108Z,38.90
2022-12-03T19:56:41.604Z,40.72
2022-12-03T19:59:08.178Z,36.70
2022-12-03T20:01:36.416Z,37.67
2022-12-03T20:04:03.954Z,40.03
2022-12-03T20:06:32.597Z,39.90
2022-12-03T20:09:01.798Z,37.15
2022-12-03T20:11:31.407Z,33.35
2022-12-03T20:14:01.014Z,37.00
2022-12-03T20:16:28.661Z,44.67
2022-12-03T20:19:00.436Z,43.72
2022-12-03T20:21:30.119Z,38.33
2022-12-03T20:23:56.687Z,38.90
2022-12-03T20:26:24.606Z,31.63
2022-12-03T20:28:53.927Z,37.05
2022-12-03T20:31:22.639Z,35.20
2022-12-03T20:33:54.058Z,39.80
2022-12-03T20:36:22.601Z,32.00
2022-12-03T20:38:53.235Z,37.22
2022-12-03T20:41:19.815Z,31.92
2022-12-03T20:43:46.703Z,36.60
2022-12-03T20:46:21.177Z,34.80
2022-12-03T20:48:48.180Z,34.03
2022-12-03T20:51:17.257Z,40.40
2022-12-03T20:53:44.321Z,35.72
2022-12-03T20:56:18.371Z,32.30
2022-12-03T20:58:44.886Z,37.85
2022-12-03T21:01:16.228Z,34.78
2022-12-03T21:03:44.342Z,36.45
2022-12-03T21:06:11.822Z,34.15
2022-12-03T21:08:42.564Z,33.28
2022-12-03T21:13:44.158Z,32.92
2022-12-03T21:16:14.175Z,37.42
2022-12-03T21:18:41.626Z,37.42
2022-12-03T21:21:10.672Z,33.35
2022-12-03T21:23:37.332Z,31.40
2022-12-03T21:26:08.934Z,36.50
2022-12-03T21:28:37.419Z,38.63
2022-12-03T21:31:06.701Z,34.05
2022-12-03T21:33:34.098Z,35.28
2022-12-03T21:36:01.019Z,37.75
2022-12-03T21:38:29.172Z,39.83
2022-12-03T21:40:56.767Z,34.92
2022-12-03T21:43:24.096Z,34.92
2022-12-03T21:45:51.426Z,31.45
2022-12-03T21:48:18.675Z,34.42
2022-12-03T21:50:46.169Z,35.40
2022-12-03T21:53:12.983Z,41.75
2022-12-03T21:55:40.705Z,31.67
2022-12-03T21:58:09.987Z,37.42
2022-12-03T22:00:36.592Z,36.85
2022-12-03T22:03:03.222Z,33.05
2022-12-03T22:05:29.802Z,38.85
2022-12-03T22:07:56.331Z,35.90
2022-12-03T22:10:23.441Z,33.65
2022-12-03T22:12:50.023Z,37.53
2022-12-03T22:15:19.184Z,35.72
2022-12-03T22:17:46.560Z,37.20
2022-12-03T22:20:13.300Z,34.42
2022-12-03T22:22:40.044Z,37.55
2022-12-03T22:25:07.151Z,35.88
2022-12-03T22:27:33.711Z,31.25
2022-12-03T22:30:00.219Z,31.75
2022-12-03T22:32:26.957Z,36.50
2022-12-03T22:34:53.461Z,34.42
2022-12-03T22:37:19.989Z,35.72
2022-12-03T22:39:46.506Z,32.88
2022-12-03T22:42:12.990Z,35.38
2022-12-03T22:44:39.489Z,32.55
2022-12-03T22:47:06.094Z,39.80
2022-12-03T22:49:32.592Z,34.05
2022-12-03T22:51:59.120Z,29.60
2022-12-03T22:54:25.580Z,37.95
2022-12-03T22:56:52.040Z,31.42
2022-12-03T22:59:18.549Z,37.78
2022-12-03T23:01:45.063Z,34.58
2022-12-03T23:04:12.005Z,27.85
2022-12-03T23:06:39.121Z,33.30
2022-12-03T23:09:07.036Z,35.10
2022-12-03T23:11:33.894Z,36.05
2022-12-03T23:14:00.368Z,35.47
2022-12-03T23:16:32.481Z,35.45
2022-12-03T23:19:00.818Z,39.03
2022-12-03T23:21:30.633Z,34.83
2022-12-03T23:23:59.282Z,34.40
2022-12-03T23:26:26.418Z,31.48
2022-12-03T23:28:53.276Z,37.42
2022-12-03T23:31:23.652Z,35.53
2022-12-03T23:33:51.382Z,31.90
2022-12-03T23:36:18.024Z,46.00
2022-12-03T23:38:44.955Z,40.40
2022-12-03T23:41:14.784Z,33.15
2022-12-03T23:43:41.975Z,35.38
2022-12-03T23:46:20.643Z,38.40
2022-12-03T23:48:47.373Z,36.05
2022-12-03T23:51:17.610Z,34.08
2022-12-03T23:53:44.858Z,37.42
2022-12-03T23:56:14.711Z,38.78
2022-12-03T23:58:41.216Z,34.15
